Terminal Aerodrome Forecast
Issued by NWS Bismarck, ND

Home | Current Version | Previous Version | Graphics & Text | Print | Product List | Glossary On
Versions: 1 2 3 4 5 6 7 8 9 10 11 12 13 14 15 16 17
000
FTUS43 KBIS 231500 AAA
TAFBIS
TAF AMD
KBIS 231513Z 2315/2412 14018KT P6SM BKN200
     FM232100 13014KT P6SM VCSH BKN100
     FM240000 11014KT P6SM VCSH BKN050 OVC090=

USA.gov is the U.S. government's official web portal to all federal, state and local government web resources and services.